Flight Track Log - Related Links

Times and Time Zones

All times are in EDT time to prevent confusion due to time zone crossing. See the EJA951 flight status page for this flight to view local times or setup timezone preferences in your user account.

Time Position Orientation Groundspeed Altitude Reporting Facility
EDT Latitude Longitude Course Direction KTS MPH feet Rate Location/Type
Mon 07:33:54 PM 37.3833 -121.9500 322° Northwest 174 200 1,400  Level Northern Cal TRACON
Mon 07:34:49 PM 37.4167 -121.9833 322° Northwest 210 242 4,700 1,878 Climbing Northern Cal TRACON
Mon 07:35:49 PM 37.4333 -121.9167 73° East 228 262 5,000 150 Climbing Northern Cal TRACON
Mon 07:36:49 PM 37.4000 -121.8667 130° Southeast 216 249 5,000 1,250 Level Northern Cal TRACON
Mon 07:37:49 PM 37.3500 -121.8167 142° Southeast 228 262 7,500 2,286 Climbing Northern Cal TRACON
Mon 07:38:55 PM 37.3000 -121.8333 195° South 262 302 9,800 1,614 Climbing Northern Cal TRACON
Mon 07:40:14 PM 37.3839 -121.8661 343° North 307 353 11,400 1,106 Climbing Oakland Center
Mon 07:41:16 PM 37.4717 -121.8108 27° Northeast 350 403 12,400 1,220 Climbing Oakland Center
Mon 07:42:17 PM 37.5875 -121.7392 26° Northeast 382 440 13,900 1,455 Climbing Oakland Center
Mon 07:42:55 PM 37.6500 -121.7000 26° Northeast 399 459 14,800 1,207 Climbing Northern Cal TRACON
Mon 07:45:21 PM 37.8081 -121.4358 53° Northeast 418 481 17,600 1,333 Climbing Oakland Center
Mon 07:46:22 PM 37.8953 -121.2944 52° Northeast 426 490 19,400 1,561 Climbing Oakland Center
Mon 07:47:24 PM 37.9703 -121.1742 52° Northeast 435 501 20,800 1,366 Climbing Oakland Center
Mon 07:48:25 PM 38.0447 -121.0522 52° Northeast 439 505 22,200 1,279 Climbing Oakland Center
Mon 07:49:26 PM 38.0883 -120.9050 69° East 455 524 23,400 1,220 Climbing Oakland Center
Mon 07:50:28 PM 38.1086 -120.7439 81° East 465 535 24,700 1,317 Climbing Oakland Center
Mon 07:51:29 PM 38.1303 -120.5786 80° East 475 547 26,100 1,230 Climbing Oakland Center
Mon 07:52:30 PM 38.1528 -120.4092 80° East 487 560 27,200 1,122 Climbing Oakland Center
Mon 07:53:32 PM 38.1750 -120.2364 81° East 496 571 28,400 1,220 Climbing Oakland Center
Mon 07:54:33 PM 38.2044 -120.0214 80° East 515 593 29,700 1,122 Climbing Oakland Center
Mon 07:55:35 PM 38.2272 -119.8378 81° East 526 605 30,700 1,220 Climbing Oakland Center
Mon 07:56:36 PM 38.2508 -119.6531 81° East 530 610 32,200 1,721 Climbing Oakland Center
Mon 07:57:37 PM 38.2739 -119.4678 81° East 531 611 34,200 1,366 Climbing Oakland Center
Mon 07:58:39 PM 38.2944 -119.2928 81° East 530 610 35,000 390 Climbing Oakland Center
Mon 07:59:40 PM 38.3183 -119.0983 81° East 554 638 35,000  Level Oakland Center
Mon 08:00:41 PM 38.3469 -118.8561 81° East 577 664 35,000  Level Oakland Center
Mon 08:01:43 PM 38.3714 -118.6503 81° East 590 679 35,000 98 Level Oakland Center
Mon 08:02:44 PM 38.3950 -118.4475 81° East 583 671 35,200 689 Climbing Oakland Center
Mon 08:03:45 PM 38.4167 -118.2478 82° East 572 658 36,400 1,171 Climbing Oakland Center
Mon 08:04:47 PM 38.4397 -118.0536 81° East 563 648 37,600 1,171 Climbing Oakland Center
Mon 08:05:48 PM 38.4608 -117.8581 82° East 557 641 38,800 1,180 Climbing Oakland Center
Mon 08:06:49 PM 38.4814 -117.6647 82° East 549 632 40,000 1,125 Climbing Oakland Center
Mon 08:07:24 PM 38.4931 -117.5492 83° East 547 629 40,600 619 Climbing Salt Lake Center
Mon 08:08:26 PM 38.5128 -117.3558 83° East 543 625 41,000 194 Climbing Salt Lake Center
Mon 08:09:28 PM 38.5097 -117.1583 91° East 550 633 41,000  Level Salt Lake Center
Mon 08:10:30 PM 38.4928 -116.9594 96° East 555 639 41,000  Level Salt Lake Center
Mon 08:11:31 PM 38.4756 -116.7622 96° East 554 638 41,000  Level Salt Lake Center
Mon 08:12:33 PM 38.4553 -116.5258 96° East 556 640 41,000  Level Salt Lake Center
Mon 08:13:35 PM 38.4378 -116.3289 96° East 557 641 41,000  Level Salt Lake Center
Mon 08:14:37 PM 38.4200 -116.1319 97° East 558 642 41,000  Level Salt Lake Center
Mon 08:15:39 PM 38.4025 -115.9356 96° East 556 640 41,000  Level Salt Lake Center
Mon 08:16:41 PM 38.3833 -115.7392 97° East 558 642 41,000  Level Salt Lake Center
Mon 08:17:42 PM 38.3642 -115.5433 97° East 557 641 41,000  Level Salt Lake Center
Mon 08:18:44 PM 38.3461 -115.3475 97° East 556 640 41,000  Level Salt Lake Center
Mon 08:19:46 PM 38.3256 -115.1381 97° East 559 643 41,000  Level Salt Lake Center
Mon 08:20:48 PM 38.3061 -114.9450 97° East 553 636 41,000  Level Salt Lake Center
Mon 08:21:49 PM 38.2869 -114.7503 97° East 554 638 41,000  Level Salt Lake Center
Mon 08:22:51 PM 38.2628 -114.5161 97° East 558 642 41,000  Level Salt Lake Center
Mon 08:23:53 PM 38.2331 -114.3269 101° East 550 633 41,000  Level Salt Lake Center
Mon 08:24:55 PM 38.1847 -114.1433 108° East 548 631 41,000  Level Salt Lake Center
Mon 08:25:57 PM 38.1378 -113.9600 108° East 547 629 41,000  Level Salt Lake Center
Mon 08:26:58 PM 38.0883 -113.7772 109° East 548 631 41,000  Level Salt Lake Center
Mon 08:28:00 PM 38.0400 -113.5953 109° East 545 627 41,000  Level Salt Lake Center
Mon 08:29:02 PM 37.9914 -113.4114 108° East 549 632 41,000  Level Salt Lake Center
Mon 08:30:04 PM 37.9325 -113.1917 109° East 549 632 41,000  Level Salt Lake Center
Mon 08:31:06 PM 37.8833 -113.0081 109° East 547 629 41,000  Level Salt Lake Center
Mon 08:32:07 PM 37.8336 -112.8236 109° East 546 628 41,000  Level Salt Lake Center
Mon 08:33:09 PM 37.7833 -112.6372 109° East 549 632 41,000  Level Salt Lake Center
Mon 08:34:11 PM 37.7322 -112.4536 109° East 549 632 41,000  Level Salt Lake Center
Mon 08:35:13 PM 37.6828 -112.2714 109° East 548 631 41,000  Level Salt Lake Center
Mon 08:36:14 PM 37.6444 -112.0842 104° East 550 633 41,000  Level Salt Lake Center
Mon 08:37:16 PM 37.6064 -111.8972 104° East 550 633 41,000  Level Salt Lake Center
Mon 08:39:20 PM 37.5272 -111.5236 105° East 552 635 41,000  Level Salt Lake Center
Mon 08:40:21 PM 37.4792 -111.3000 105° East 552 635 41,000  Level Salt Lake Center
Mon 08:41:20 PM 37.4469 -111.1508 105° East 553 636 41,000  Level Denver Center
Mon 08:43:00 PM 37.3888 -110.8829 105° East  Level FlightAware Approximate
Mon 08:43:24 PM 37.3594 -110.7406 105° East 554 638 41,000  Level Denver Center
Mon 08:45:30 PM 37.2775 -110.3700 105° East 553 636 41,000  Level Salt Lake Center
Mon 08:46:32 PM 37.2361 -110.1856 106° East 551 634 41,000  Level Salt Lake Center
Mon 08:47:33 PM 37.1864 -109.9642 106° East 551 634 41,000  Level Salt Lake Center
Mon 08:48:34 PM 37.1450 -109.7869 106° East 548 631 41,000  Level Denver Center
Mon 08:49:35 PM 37.1058 -109.6114 106° East 546 628 41,000  Level Denver Center
Mon 08:50:37 PM 37.0594 -109.4058 106° East 546 628 41,000  Level Denver Center
Mon 08:51:39 PM 37.0181 -109.2319 107° East 545 627 41,000  Level Denver Center
Mon 08:52:41 PM 36.9708 -109.0275 106° East 545 627 41,000  Level Denver Center
Mon 08:53:43 PM 36.9300 -108.8533 106° East 544 626 41,000  Level Denver Center
Mon 08:54:45 PM 36.8883 -108.6797 107° East 543 625 41,000  Level Denver Center
Mon 08:55:47 PM 36.8394 -108.4753 107° East 545 627 41,000  Level Denver Center
Mon 08:56:49 PM 36.7978 -108.3036 107° East 541 623 41,000  Level Denver Center
Mon 08:57:51 PM 36.7481 -108.1028 107° East 541 623 41,000  Level Denver Center
Mon 08:58:53 PM 36.6917 -107.9378 113° Southeast 537 618 41,000  Level Denver Center
Mon 08:59:55 PM 36.6236 -107.7475 114° Southeast 538 619 41,000  Level Denver Center
Mon 09:00:57 PM 36.5653 -107.5839 114° Southeast 539 620 41,000  Level Denver Center
Mon 09:01:59 PM 36.5064 -107.4200 114° Southeast 539 620 41,000  Level Denver Center
Mon 09:03:01 PM 36.4378 -107.2300 114° Southeast 540 621 41,000  Level Denver Center
Mon 09:04:03 PM 36.3800 -107.0675 114° Southeast 538 619 41,000  Level Denver Center
Mon 09:05:05 PM 36.3106 -106.8769 114° Southeast 541 623 41,000  Level Denver Center
Mon 09:06:07 PM 36.2517 -106.7144 114° Southeast 540 621 41,000  Level Denver Center
Mon 09:07:09 PM 36.1844 -106.5314 114° Southeast 540 621 41,000  Level Denver Center
Mon 09:08:07 PM 36.1269 -106.3744 114° Southeast 548 631 41,000  Level Albuquerque Center
Mon 09:09:08 PM 36.0631 -106.2036 115° Southeast 547 629 41,000  Level Albuquerque Center
Mon 09:10:12 PM 35.9994 -106.0328 115° Southeast 543 625 41,000  Level Albuquerque Center
Mon 09:11:13 PM 35.9347 -105.8606 115° Southeast 544 626 41,000  Level Albuquerque Center
Mon 09:12:14 PM 35.8678 -105.6836 115° Southeast 535 616 41,000  Level Albuquerque Center
Mon 09:13:15 PM 35.8064 -105.5200 115° Southeast 535 616 41,000  Level Albuquerque Center
Mon 09:14:17 PM 35.7417 -105.3514 115° Southeast 540 621 41,000  Level Albuquerque Center
Mon 09:15:18 PM 35.6767 -105.1836 115° Southeast 540 621 41,000  Level Albuquerque Center
Mon 09:16:20 PM 35.5908 -104.9975 120° Southeast 532 612 41,000  Level Albuquerque Center
Mon 09:17:21 PM 35.5128 -104.8442 122° Southeast 527 606 41,000  Level Albuquerque Center
Mon 09:18:22 PM 35.4358 -104.6892 121° Southeast 527 606 41,000  Level Albuquerque Center
Mon 09:19:23 PM 35.3586 -104.5339 121° Southeast 530 610 41,000  Level Albuquerque Center
Mon 09:20:26 PM 35.2811 -104.3817 122° Southeast 539 620 41,000  Level Albuquerque Center
Mon 09:21:28 PM 35.2028 -104.2292 122° Southeast 536 617 41,000  Level Albuquerque Center
Mon 09:22:29 PM 35.1247 -104.0758 122° Southeast 531 611 41,000  Level Albuquerque Center
Mon 09:23:29 PM 35.0400 -103.8981 120° Southeast 529 609 41,000  Level Albuquerque Center
Mon 09:24:33 PM 34.9622 -103.7450 122° Southeast 527 606 41,000  Level Albuquerque Center
Mon 09:25:34 PM 34.8844 -103.5922 122° Southeast 526 605 41,000  Level Albuquerque Center
Mon 09:26:34 PM 34.8061 -103.4397 122° Southeast 528 608 41,000  Level Albuquerque Center
Mon 09:27:37 PM 34.7261 -103.2867 122° Southeast 531 611 41,000  Level Albuquerque Center
Mon 09:28:37 PM 34.6461 -103.1325 122° Southeast 533 613 41,000  Level Albuquerque Center
Mon 09:29:38 PM 34.5658 -102.9778 122° Southeast 536 617 41,000  Level Albuquerque Center
Mon 09:30:40 PM 34.4928 -102.8211 119° Southeast 533 613 41,000  Level Albuquerque Center
Mon 09:31:41 PM 34.4711 -102.6269 98° East 548 631 41,000  Level Albuquerque Center
Mon 09:32:43 PM 34.4528 -102.4475 97° East 545 627 41,000  Level Albuquerque Center
Mon 09:33:44 PM 34.4336 -102.2681 97° East 542 624 41,000  Level Albuquerque Center
Mon 09:34:45 PM 34.4158 -102.0894 97° East 541 623 41,000  Level Albuquerque Center
Mon 09:35:49 PM 34.3925 -101.8728 97° East 542 624 41,000  Level Albuquerque Center
Mon 09:36:47 PM 34.3733 -101.6908 97° East 543 625 41,000  Level Fort Worth Center
Mon 09:37:47 PM 34.3503 -101.5086 99° East 543 625 41,000  Level Fort Worth Center
Mon 09:38:47 PM 34.3311 -101.3267 97° East 543 625 41,000  Level Fort Worth Center
Mon 09:39:47 PM 34.3147 -101.1825 98° East 543 625 41,000  Level Fort Worth Center
Mon 09:40:47 PM 34.2750 -100.9672 103° East 543 625 41,000  Level Fort Worth Center
Mon 09:41:47 PM 34.2383 -100.7897 104° East 543 625 41,000  Level Fort Worth Center
Mon 09:42:48 PM 34.1992 -100.6125 105° East 543 625 41,000  Level Fort Worth Center
Mon 09:43:47 PM 34.1597 -100.4353 105° East 543 625 41,000  Level Fort Worth Center
Mon 09:44:47 PM 34.1200 -100.2608 105° East 543 625 41,000  Level Fort Worth Center
Mon 09:45:47 PM 34.0803 -100.0817 105° East 538 619 41,000  Level Fort Worth Center
Mon 09:46:47 PM 34.0378 -99.9072 106° East 543 625 41,000  Level Fort Worth Center
Mon 09:47:47 PM 33.9975 -99.7258 105° East 543 625 41,000  Level Fort Worth Center
Mon 09:48:47 PM 33.9567 -99.5494 106° East 538 619 41,000  Level Fort Worth Center
Mon 09:49:47 PM 33.9158 -99.3758 106° East 538 619 41,000  Level Fort Worth Center
Mon 09:50:47 PM 33.8747 -99.1972 105° East 538 619 41,000  Level Fort Worth Center
Mon 09:51:47 PM 33.8331 -99.0264 106° East 538 619 41,000 -600 Level Fort Worth Center
Mon 09:52:47 PM 33.7914 -98.8481 106° East 538 619 39,800 -1,650 Descending Fort Worth Center
Mon 09:53:47 PM 33.7497 -98.6725 106° East 543 625 37,700 -2,150 Descending Fort Worth Center
Mon 09:54:47 PM 33.7075 -98.4972 106° East 543 625 35,500 -2,250 Descending Fort Worth Center
Mon 09:55:47 PM 33.6628 -98.3194 107° East 543 625 33,200 2,750 Descending Fort Worth Center
Mon 09:56:47 PM 33.6181 -98.1419 107° East 548 631 41,000 -4,550 Climbing Fort Worth Center
Mon 09:57:47 PM 33.5794 -97.9769 106° East 548 631 24,100 -10,450 Descending Fort Worth Center
Mon 09:58:47 PM 33.5383 -97.8247 108° East 511 588 20,100 -3,769 Descending Fort Worth Center
Mon 09:59:48 PM 33.5072 -97.6925 106° East 467 537 16,500 -3,600 Descending Fort Worth Center
Mon 10:00:47 PM 33.4719 -97.5481 106° East 433 498 12,900 -2,924 Descending Fort Worth Center
Mon 10:01:47 PM 33.4261 -97.4433 118° Southeast 367 422 10,700 -1,770 Descending Fort Worth Center
Mon 10:03:06 PM 33.3667 -97.3500 127° Southeast 264 304 8,800 -1,770 Descending Dallas / Fort Worth TRACON
Mon 10:04:06 PM 33.3500 -97.2500 101° East 268 308 6,600 -1,900 Descending Dallas / Fort Worth TRACON
Mon 10:05:06 PM 33.3500 -97.1667 90° East 257 296 5,000 -1,604 Descending Dallas / Fort Worth TRACON
Mon 10:05:47 PM 33.3444 -97.1175 98° East 255 293 3,900 -1,188 Descending Fort Worth Center
Mon 10:06:47 PM 33.2942 -97.0631 138° Southeast 240 276 3,000 -450 Descending Fort Worth Center
Mon 10:07:47 PM 33.2419 -97.0258 149° Southeast 228 262 3,000 -450 Level Fort Worth Center
Mon 10:08:47 PM 33.1917 -96.9864 147° Southeast 217 250 2,100 -500 Descending Fort Worth Center
Mon 10:09:47 PM 33.1394 -96.9469 148° Southeast 217 250 2,000 -50 Descending Fort Worth Center
Mon 10:10:47 PM 33.0869 -96.9075 148° Southeast 217 250 2,000  Level Fort Worth Center
Mon 10:11:47 PM 33.0472 -96.8756 146° Southeast 218 251 2,000 -250 Level Fort Worth Center
Mon 10:12:47 PM 33.0158 -96.8586 156° South 145 167 1,500 -600 Descending Fort Worth Center
Mon 10:13:47 PM 32.9825 -96.8414 157° South 127 146 800 -700 Descending Fort Worth Center
Mon 10:15:00 PM 32.9667 -96.8333 150° Southeast  Level FlightAware Approximate
Mon 10:22:00 PM 32.9686 -96.8364 150° Southeast  Level Estimated
Mon 10:23:00 PM 32.9667 -96.8333 150° Southeast  Level FlightAware Approximate

Login

Don't have an account? Register now (free) for customized features, flight alerts, and more!